KAWO/AWO METAR and TAF weather

Enter ICAO airport designator
Station Type Date Time Source
KAWO METAR 2020/08/14 16:56 UTC NOAA

KAWO 141656Z AUTO 01005KT 10SM 17/10 A3024 RMK AO2 SLP244 T01720100


Station Type Date Time Source
KAWO Decoded METAR 2020/08/14 16:56 UTC NOAA

Arlington Municipal, WA, United States (KAWO) 48-10N 122-10W
Aug 14, 2020 - 12:56 PM EDT / 2020.08.14 1656 UTC
Wind: from the N (010 degrees) at 6 MPH (5 KT):0
Visibility: 10 mile(s):0
Temperature: 63.0 F (17.2 C)
Dew Point: 50.0 F (10.0 C)
Relative Humidity: 62%
Pressure (altimeter): 30.24 in. Hg (1024 hPa)
ob: KAWO 141656Z AUTO 01005KT 10SM 17/10 A3024 RMK AO2 SLP244 T01720100
cycle: 17

Station Type Date Time Source
KAWO TAF UTC NOAA

Error!

Example: see airport list